Weather observations for the past three days for
West Memphis, West Memphis Municipal Airport
Metric (Imperial)
Date Time (cdt) Wind (kph) Vis. (km) Weather Sky Cond. Temperature (ºC) Relative Humidity Wind Chill (°C) Heat Index (°C) Pressure Precipitation (cm)
Air Dwpt 6 hour altimeter (cm) sea level (mb) 1 hr 3 hr 6 hr
Max. Min.
04 20:53 S 17 16.09 Fair CLR 21.7 10 47% 75.69 1008.9
04 19:53 S 19 16.09 Fair CLR 22.8 9.4 43% 75.69 1008.7
04 18:53 S 24 G 43 16.09 Fair CLR 24.4 9.4 27.2 24.4 39% 25 75.69 1008.7
04 17:53 S 22 G 48 16.09 A Few Clouds FEW070 25.6 10 37% 26 75.72 1009.0
04 16:53 S 28 G 43 16.09 A Few Clouds FEW070 25.6 10 37% 26 75.72 1009.1
04 15:53 SW 22 G 50 16.09 Fair CLR 26.7 10.6 37% 26 75.74 1009.3
04 14:53 SW 17 G 46 16.09 Fair CLR 26.7 10 35% 26 75.79 1010.2
04 13:53 SW 30 G 52 16.09 Fair CLR 26.7 9.4 34% 26 75.87 1011.1
04 12:53 SW 26 G 44 16.09 Fair CLR 26.1 10 26.1 15 36% 26 75.92 1011.8
04 11:53 SW 22 G 43 16.09 Fair CLR 25.6 9.4 36% 26 75.97 1012.5
04 10:53 SW 19 G 37 16.09 Fair CLR 24.4 11.1 43% 26 76.02 1013.1
04 09:53 SW 15 G 30 16.09 Fair CLR 21.7 12.2 55% 76.05 1013.7
04 08:53 SW 17 G 30 16.09 NULL NULL 20 11.7 59% 76.07 1013.8
04 07:53 S 15 16.09 Fair CLR 18.3 11.7 66% 76.02 1013.2
04 06:53 S 13 16.09 Fair CLR 16.1 11.1 17.2 14.4 72% 76.02 1013.0
04 05:53 S 13 16.09 Fair CLR 15 11.1 78% 75.97 1012.4
04 04:53 S 13 16.09 Fair CLR 15.6 11.1 75% 76 1012.8
04 03:53 S 13 16.09 Fair CLR 17.2 10.6 65% 76.02 1013.1
04 02:53 S 15 16.09 Fair CLR 17.2 10 63% 76.02 1013.2
04 01:53 S 13 16.09 Fair CLR 16.1 10 67% 76.07 1013.8
04 00:53 S 13 16.09 Fair CLR 15.6 9.4 22.2 15 67% 76.1 1014.3
03 23:53 S 9 16.09 Fair CLR 15 9.4 69% 76.12 1014.7
03 22:53 S 9 16.09 Fair CLR 15 9.4 69% 76.12 1014.6
03 21:53 S 9 16.09 Fair CLR 15.6 9.4 67% 76.15 1015.0
03 20:53 S 7 16.09 Fair CLR 18.3 8.9 54% 76.12 1014.7
03 19:53 S 7 16.09 Fair CLR 18.9 10 56% 76.12 1014.5
03 18:53 SW 7 16.09 Fair CLR 22.2 7.8 23.9 21.1 40% 76.12 1014.6
03 17:53 SW 7 16.09 Fair CLR 23.3 6.1 33% 76.15 1015.1
03 16:53 Vrbl 9 16.09 Fair CLR 23.9 6.1 32% 25 76.2 1015.7
03 15:53 SW 20 16.09 Fair CLR 23.3 5 31% 76.28 1016.8
03 14:53 SW 13 16.09 Fair CLR 22.8 4.4 30% 76.35 1017.8
03 13:53 Vrbl 9 16.09 Fair CLR 21.7 5 34% 76.43 1018.9
03 12:53 SW 11 16.09 Fair CLR 21.1 6.1 21.1 8.9 38% 76.53 1019.9
03 11:53 SW 20 G 39 16.09 Fair CLR 20 6.1 40% 76.61 1021.0
03 10:53 S 20 16.09 Fair CLR 18.9 6.7 45% 76.63 1021.5
03 09:53 S 15 16.09 Fair CLR 17.2 6.1 48% 76.66 1021.7
03 08:53 S 15 16.09 Fair CLR 15 5.6 54% 76.66 1021.6
03 07:53 S 15 16.09 Fair CLR 12.2 6.1 67% 76.66 1021.7
03 06:53 S 7 16.09 Fair CLR 8.3 6.1 12.8 7.2 86% 7 76.61 1021.3
03 05:53 S 6 16.09 Fair CLR 8.3 6.1 86% 76.56 1020.6
03 04:53 SE 6 16.09 Fair CLR 8.3 5.6 83% 76.56 1020.4
03 03:53 Calm 16.09 Fair CLR 8.9 6.1 83% 76.56 1020.3
03 02:53 SE 9 16.09 Fair CLR 11.1 5 66% 76.53 1020.0
03 01:53 SE 9 16.09 Fair CLR 12.2 5.6 64% 76.53 1020.0
03 00:53 E 7 16.09 Fair CLR 12.8 5.6 19.4 12.2 62% 76.53 1020.0
02 23:53 E 15 16.09 Fair CLR 13.3 5 57% 76.48 1019.5
02 22:53 NE 19 G 28 16.09 Fair CLR 13.9 4.4 53% 76.45 1019.0
02 21:53 N 6 16.09 Fair CLR 15 3.3 46% 76.43 1018.6
02 20:53 N 9 16.09 Fair CLR 15.6 3.3 44% 76.38 1018.0
02 19:53 N 9 16.09 Fair CLR 17.2 3.9 41% 76.33 1017.4
02 18:53 N 11 G 30 16.09 Fair CLR 19.4 3.9 21.7 19.4 36% 76.28 1016.7
02 17:53 Vrbl 9 16.09 Partly Cloudy SCT090 20.6 3.9 33% 76.28 1016.6
02 16:53 NW 13 16.09 Partly Cloudy FEW080 SCT100 20.6 4.4 35% 76.25 1016.5
02 15:53 Calm 16.09 Partly Cloudy FEW080 SCT100 21.1 4.4 34% 76.28 1016.6
02 14:53 N 17 G 35 16.09 Mostly Cloudy SCT075 BKN095 21.7 6.1 36% 76.3 1017.1
02 13:53 Vrbl 11 16.09 Partly Cloudy FEW070 SCT095 20.6 5.6 38% 76.33 1017.3
02 12:53 NW 13 G 28 16.09 A Few Clouds FEW090 20 5 20 8.3 38% 76.38 1018.0
02 11:53 Vrbl 9 16.09 Fair CLR 18.9 6.1 43% 76.4 1018.5
02 10:53 Vrbl 11 16.09 Fair CLR 17.8 5.6 45% 76.43 1018.8
02 09:53 Vrbl 11 16.09 Fair CLR 16.7 7.2 54% 76.43 1018.7
02 08:53 W 6 16.09 Fair CLR 15 7.2 60% 76.4 1018.4
02 07:53 Calm 16.09 Fair CLR 11.7 7.8 77% 76.38 1018.1
02 06:53 Calm 16.09 Fair CLR 8.3 7.2 13.3 7.2 93% 76.33 1017.6
02 05:53 Calm 16.09 Fair CLR 8.3 6.1 86% 76.3 1017.0
02 04:53 Calm 16.09 Fair CLR 8.3 6.1 86% 76.28 1016.7
02 03:53 Calm 16.09 Fair CLR 9.4 5 74% 76.25 1016.4
02 02:53 Calm 16.09 Fair CLR 11.1 4.4 64% 76.25 1016.5
02 01:53 Calm 16.09 Fair CLR 12.2 3.9 57% 76.28 1016.5
02 00:53 NE 6 16.09 Fair CLR 12.2 5 16.7 12.2 62% 76.3 1017.1
01 23:53 N 6 16.09 Fair CLR 12.2 6.1 67% 76.28 1016.6
01 22:53 Calm 16.09 Fair CLR 13.3 3.9 53% 76.23 1016.0
01 21:53 NE 9 16.09 Fair CLR 14.4 2.8 46% 76.25 1016.3
Date Time (cdt) Wind (kph) Vis. (km) Weather Sky Cond. Air Dwpt Max. Min. Relative Humidity Wind Chill (°C) Heat Index (°C) altimeter (cm) sea level (mb) 1 hr 3 hr 6 hr
6 hour
Temperature (ºC) Pressure Precipitation (cm)